Time;durP1;ratioP1;P1;durP2;ratioP2;P2;SDS_P1;SDS_P2;PMS_P1;PMS_P2;Temp;Humidity;BMP_temperature;BMP_pressure;BME280_temperature;BME280_humidity;BME280_pressure;Samples;Min_cycle;Max_cycle;Signal;HPM_P1;HPM_P2
2021/04/27 00:00:56;;;;;;;21.70;13.20;;;;;;;-1.53;71.11;100657.32;104250;1104;78941;-62
2021/04/27 00:03:01;;;;;;;21.40;12.40;;;;;;;-1.57;71.44;100652.36;104220;1104;77523;-61
2021/04/27 00:05:14;;;;;;;21.30;12.30;;;;;;;-1.55;71.15;100656.59;104224;1100;77863;-62
2021/04/27 00:07:19;;;;;;;23.30;12.10;;;;;;;-1.54;71.43;100645.02;104254;1099;79002;-64
2021/04/27 00:09:24;;;;;;;25.50;14.60;;;;;;;-1.54;71.59;100645.02;104217;1104;78856;-64
2021/04/27 00:11:29;;;;;;;22.40;13.20;;;;;;;-1.62;71.46;100641.23;104263;1104;78895;-64
2021/04/27 00:13:35;;;;;;;19.80;11.50;;;;;;;-1.66;71.23;100647.69;104183;1104;77734;-64
2021/04/27 00:15:40;;;;;;;25.90;14.60;;;;;;;-1.70;71.40;100649.69;104209;1104;78301;-63
2021/04/27 00:17:49;;;;;;;22.50;12.90;;;;;;;-1.68;71.37;100652.25;104244;1099;78600;-64
2021/04/27 00:19:54;;;;;;;23.40;14.30;;;;;;;-1.71;71.41;100649.81;104097;1107;78303;-65
2021/04/27 00:22:00;;;;;;;23.20;14.30;;;;;;;-1.73;71.57;100647.25;104218;1105;78499;-66
2021/04/27 00:24:08;;;;;;;21.90;14.70;;;;;;;-1.71;71.68;100642.72;104240;1104;78397;-64
2021/04/27 00:26:13;;;;;;;26.40;13.40;;;;;;;-1.72;71.20;100651.60;104279;1104;78115;-62
2021/04/27 00:28:22;;;;;;;23.20;14.30;;;;;;;-1.71;71.36;100642.72;104227;1104;77512;-63
2021/04/27 00:30:30;;;;;;;24.20;14.10;;;;;;;-1.69;71.19;100650.54;104226;1099;76996;-63
2021/04/27 00:32:36;;;;;;;23.20;14.90;;;;;;;-1.66;71.92;100647.69;104192;1104;77376;-63
2021/04/27 00:34:44;;;;;;;23.20;14.50;;;;;;;-1.70;71.56;100647.04;104203;1104;77869;-63
2021/04/27 00:36:53;;;;;;;23.60;14.60;;;;;;;-1.72;71.87;100645.45;104214;1104;78270;-63
2021/04/27 00:38:59;;;;;;;20.20;13.00;;;;;;;-1.72;71.66;100642.80;104202;1104;79586;-64
2021/04/27 00:41:04;;;;;;;26.70;17.00;;;;;;;-1.74;71.80;100648.22;104274;1104;76740;-63
2021/04/27 00:43:13;;;;;;;26.40;15.10;;;;;;;-1.76;71.64;100638.69;104226;1099;78003;-63
2021/04/27 00:45:21;;;;;;;25.00;14.80;;;;;;;-1.83;71.78;100641.75;104258;1104;78715;-62
2021/04/27 00:47:28;;;;;;;23.10;14.40;;;;;;;-1.87;71.39;100642.90;104206;1104;79476;-61
2021/04/27 00:49:37;;;;;;;23.70;15.00;;;;;;;-1.89;72.07;100644.81;104232;1104;79183;-61
2021/04/27 00:51:45;;;;;;;24.20;15.20;;;;;;;-1.92;71.82;100631.78;104241;1104;79240;-64
2021/04/27 00:53:51;;;;;;;25.40;15.00;;;;;;;-1.95;72.02;100637.28;104254;1104;77600;-64
2021/04/27 00:55:56;;;;;;;28.10;14.60;;;;;;;-2.00;72.00;100634.10;104255;1097;77493;-64
2021/04/27 00:58:03;;;;;;;30.40;16.20;;;;;;;-1.99;72.16;100641.10;104236;1104;77071;-63
2021/04/27 01:00:16;;;;;;;27.10;14.50;;;;;;;-2.01;72.27;100636.87;104237;1099;78647;-63
2021/04/27 01:02:21;;;;;;;20.30;13.80;;;;;;;-2.00;71.85;100642.05;104189;1104;78196;-64
2021/04/27 01:04:27;;;;;;;23.70;14.20;;;;;;;-2.03;72.08;100626.36;104250;1104;79040;-63
2021/04/27 01:06:32;;;;;;;25.60;15.40;;;;;;;-2.01;71.75;100635.07;104235;1104;78476;-61
2021/04/27 01:08:48;;;;;;;24.40;14.70;;;;;;;-2.01;72.00;100643.02;104251;1104;77921;-62
2021/04/27 01:11:02;;;;;;;23.50;15.00;;;;;;;-2.00;72.32;100638.55;104261;1104;78194;-61
2021/04/27 01:13:14;;;;;;;25.60;14.20;;;;;;;-2.01;72.15;100640.37;104223;1104;77344;-62
2021/04/27 01:15:24;;;;;;;25.70;15.40;;;;;;;-2.01;72.15;100640.37;104217;1104;78305;-64
2021/04/27 01:17:31;;;;;;;25.50;14.80;;;;;;;-2.07;72.36;100634.63;104237;1104;77173;-64
2021/04/27 01:19:43;;;;;;;25.30;14.60;;;;;;;-2.06;72.40;100642.45;104267;1104;77357;-64
2021/04/27 01:21:51;;;;;;;27.10;15.90;;;;;;;-2.05;71.76;100628.28;104273;1104;77982;-63
2021/04/27 01:24:17;;;;;;;25.30;15.90;;;;;;;-2.04;72.00;100634.42;104270;1104;78231;-64
2021/04/27 01:26:48;;;;;;;28.70;15.30;;;;;;;-2.04;72.35;100635.28;104222;1104;78943;-64
2021/04/27 01:28:54;;;;;;;23.80;14.10;;;;;;;-2.05;71.97;100638.86;104201;1099;77402;-64
2021/04/27 01:31:00;;;;;;;26.40;14.70;;;;;;;-2.06;72.23;100634.52;104261;1099;77744;-64
2021/04/27 01:33:06;;;;;;;24.10;15.00;;;;;;;-2.08;71.95;100638.21;104253;1104;77904;-65
2021/04/27 01:35:14;;;;;;;24.10;14.60;;;;;;;-2.10;72.24;100632.19;104219;1105;76859;-61
2021/04/27 01:37:23;;;;;;;28.70;14.50;;;;;;;-2.12;71.97;100637.59;104232;1104;77283;-64
2021/04/27 01:39:30;;;;;;;26.10;14.40;;;;;;;-2.12;71.85;100637.59;104225;1098;77519;-64
2021/04/27 01:41:38;;;;;;;27.00;14.80;;;;;;;-2.14;72.12;100631.53;104203;1098;78788;-64
2021/04/27 01:43:44;;;;;;;24.70;15.80;;;;;;;-2.18;72.18;100640.65;104235;1104;79530;-64
2021/04/27 01:45:52;;;;;;;26.80;14.90;;;;;;;-2.17;72.27;100638.86;104265;1099;78097;-64
2021/04/27 01:48:00;;;;;;;23.30;14.30;;;;;;;-2.16;72.04;100645.82;104227;1104;77888;-64
2021/04/27 01:50:12;;;;;;;24.10;13.90;;;;;;;-2.21;72.04;100643.49;104223;1104;78221;-65
2021/04/27 01:52:18;;;;;;;24.20;14.80;;;;;;;-2.27;72.01;100643.90;104234;1104;76792;-62
2021/04/27 01:54:25;;;;;;;24.30;13.90;;;;;;;-2.25;72.35;100644.63;104225;1104;78286;-62
2021/04/27 01:56:31;;;;;;;22.10;13.90;;;;;;;-2.26;72.18;100647.39;104333;1099;77564;-62
2021/04/27 01:58:36;;;;;;;25.30;14.40;;;;;;;-2.25;72.21;100646.46;104381;1104;78593;-61
2021/04/27 02:00:45;;;;;;;24.40;15.20;;;;;;;-2.27;71.79;100643.05;104289;1104;79316;-64
2021/04/27 02:02:51;;;;;;;25.50;14.30;;;;;;;-2.26;72.46;100637.67;104287;1104;78274;-64
2021/04/27 02:04:59;;;;;;;24.10;13.60;;;;;;;-2.30;72.13;100636.16;104280;1104;77579;-65
2021/04/27 02:07:05;;;;;;;28.10;13.70;;;;;;;-2.34;72.32;100637.33;104250;1104;78335;-62
2021/04/27 02:09:13;;;;;;;24.10;14.10;;;;;;;-2.37;72.27;100634.89;104244;1104;77853;-64
2021/04/27 02:11:19;;;;;;;22.30;12.40;;;;;;;-2.39;72.33;100637.62;104262;1104;78492;-65
2021/04/27 02:13:25;;;;;;;27.40;14.60;;;;;;;-2.38;72.47;100630.53;104302;1104;76833;-64
2021/04/27 02:15:31;;;;;;;23.20;13.50;;;;;;;-2.39;72.64;100634.15;104247;1104;77934;-63
2021/04/27 02:17:46;;;;;;;21.10;13.10;;;;;;;-2.41;72.50;100628.09;104287;1104;77241;-65
2021/04/27 02:19:57;;;;;;;24.50;13.70;;;;;;;-2.43;72.46;100622.06;104217;1104;78254;-64
2021/04/27 02:22:06;;;;;;;19.80;13.50;;;;;;;-2.40;72.53;100627.16;104240;1104;78237;-64
2021/04/27 02:24:15;;;;;;;23.00;13.40;;;;;;;-2.38;72.74;100625.24;104260;1104;78816;-64
2021/04/27 02:26:20;;;;;;;22.00;13.00;;;;;;;-2.39;72.75;100623.57;104213;1104;76882;-64
2021/04/27 02:28:27;;;;;;;20.80;12.80;;;;;;;-2.42;72.69;100626.41;104232;1104;78303;-65
2021/04/27 02:30:33;;;;;;;23.80;13.40;;;;;;;-2.40;72.87;100627.16;104222;1104;78539;-61
2021/04/27 02:32:39;;;;;;;19.70;12.20;;;;;;;-2.38;72.78;100627.89;104224;1104;78337;-61
2021/04/27 02:34:45;;;;;;;25.00;12.70;;;;;;;-2.39;72.74;100629.69;104219;1104;76831;-63
2021/04/27 02:36:51;;;;;;;18.90;12.10;;;;;;;-2.37;72.76;100620.81;104282;1104;78716;-61
2021/04/27 02:38:57;;;;;;;18.20;12.30;;;;;;;-2.41;72.69;100621.01;104215;1104;79785;-62
2021/04/27 02:41:03;;;;;;;22.90;13.70;;;;;;;-2.41;72.88;100614.87;104239;1099;78828;-62
2021/04/27 02:43:10;;;;;;;21.50;12.20;;;;;;;-2.45;72.74;100614.25;104265;1104;78275;-62
2021/04/27 02:45:16;;;;;;;21.50;12.30;;;;;;;-2.47;72.62;100609.98;104255;1104;77931;-62
2021/04/27 02:47:22;;;;;;;22.00;13.20;;;;;;;-2.47;72.81;100616.13;104238;1104;77065;-61
2021/04/27 02:49:30;;;;;;;22.40;12.50;;;;;;;-2.49;72.81;100611.88;104223;1104;78075;-62
2021/04/27 02:51:36;;;;;;;21.00;12.40;;;;;;;-2.52;72.86;100612.94;104190;1104;79124;-62
2021/04/27 02:53:41;;;;;;;20.50;12.90;;;;;;;-2.52;72.88;100620.02;104187;1104;79047;-62
2021/04/27 02:55:46;;;;;;;19.70;12.60;;;;;;;-2.58;73.28;100613.33;104245;1104;78140;-65
2021/04/27 02:57:55;;;;;;;22.70;12.70;;;;;;;-2.59;73.00;100613.45;104257;1099;77644;-65
2021/04/27 03:00:01;;;;;;;21.80;13.30;;;;;;;-2.58;72.97;100613.33;104224;1104;78604;-65
2021/04/27 03:02:06;;;;;;;21.90;13.00;;;;;;;-2.57;72.93;100614.19;104273;1099;78686;-62
2021/04/27 03:04:11;;;;;;;19.40;12.50;;;;;;;-2.56;73.06;100613.25;104164;1104;77853;-62
2021/04/27 03:06:19;;;;;;;24.40;14.30;;;;;;;-2.55;72.91;100617.57;104248;1104;79234;-62
2021/04/27 03:08:24;;;;;;;22.10;13.30;;;;;;;-2.52;73.28;100612.94;104222;1104;79493;-62
2021/04/27 03:10:33;;;;;;;21.30;13.80;;;;;;;-2.55;72.90;100623.71;104227;1104;77930;-62
2021/04/27 03:12:38;;;;;;;23.40;13.80;;;;;;;-2.55;73.03;100626.36;104249;1104;78620;-62
2021/04/27 03:14:43;;;;;;;22.40;12.80;;;;;;;-2.55;73.28;100633.44;104238;1104;78396;-61
2021/04/27 03:16:48;;;;;;;26.60;14.40;;;;;;;-2.57;73.04;100627.41;104203;1104;78017;-66
2021/04/27 03:18:54;;;;;;;23.60;13.80;;;;;;;-2.63;73.10;100635.73;104196;1104;79671;-65
2021/04/27 03:20:59;;;;;;;23.30;14.10;;;;;;;-2.60;73.13;100631.11;104250;1104;78128;-64
2021/04/27 03:23:04;;;;;;;21.00;12.90;;;;;;;-2.58;73.02;100636.31;104242;1104;78901;-64
2021/04/27 03:25:15;;;;;;;23.30;14.50;;;;;;;-2.58;73.55;100629.20;104215;1104;78631;-64
2021/04/27 03:27:20;;;;;;;23.00;14.80;;;;;;;-2.58;73.24;100637.13;104253;1104;78057;-62
2021/04/27 03:29:26;;;;;;;28.10;15.40;;;;;;;-2.58;72.99;100636.31;104186;1104;78125;-62
2021/04/27 03:31:32;;;;;;;25.30;14.90;;;;;;;-2.62;72.97;100629.52;104201;1104;79248;-62
2021/04/27 03:33:37;;;;;;;28.30;15.80;;;;;;;-2.61;73.15;100626.75;104252;1104;77663;-62
2021/04/27 03:35:44;;;;;;;28.10;15.00;;;;;;;-2.54;73.34;100625.42;104212;1104;78314;-61
2021/04/27 03:37:49;;;;;;;27.10;15.50;;;;;;;-2.52;72.99;100628.80;104251;1104;78996;-62
2021/04/27 03:39:54;;;;;;;21.50;13.60;;;;;;;-2.55;73.32;100628.14;104216;1104;78504;-62
2021/04/27 03:42:00;;;;;;;27.90;14.80;;;;;;;-2.48;73.16;100627.67;104229;1104;78581;-62
2021/04/27 03:44:06;;;;;;;23.50;13.40;;;;;;;-2.42;73.24;100629.06;104220;1104;78838;-64
2021/04/27 03:46:11;;;;;;;23.60;13.90;;;;;;;-2.44;73.51;100628.29;104241;1104;79491;-64
2021/04/27 03:48:22;;;;;;;20.20;13.10;;;;;;;-2.35;73.37;100632.13;104238;1104;78580;-64
2021/04/27 03:50:27;;;;;;;21.90;13.90;;;;;;;-2.26;73.43;100634.17;104230;1104;79604;-65
2021/04/27 03:52:32;;;;;;;24.80;14.20;;;;;;;-2.24;73.66;100642.84;104201;1104;77876;-65
2021/04/27 03:54:38;;;;;;;22.40;13.50;;;;;;;-2.17;73.57;100642.32;104214;1100;77903;-64
2021/04/27 03:56:47;;;;;;;25.40;13.90;;;;;;;-2.07;74.07;100648.72;104236;1104;78330;-64
2021/04/27 03:58:52;;;;;;;23.30;14.80;;;;;;;-1.39;74.31;100637.81;104195;1104;77616;-65
2021/04/27 04:01:01;;;;;;;20.20;13.80;;;;;;;0.19;74.81;100638.43;104252;1104;77119;-65
2021/04/27 04:03:10;;;;;;;23.90;13.80;;;;;;;1.63;73.28;100627.66;104271;1104;77268;-65
2021/04/27 04:05:17;;;;;;;20.60;13.20;;;;;;;2.85;72.25;100624.23;104219;1104;78096;-65
2021/04/27 04:07:25;;;;;;;20.80;12.60;;;;;;;3.49;70.80;100621.14;104221;1104;78196;-65
2021/04/27 04:09:31;;;;;;;19.20;12.60;;;;;;;3.98;70.19;100622.88;104240;1104;78557;-65
2021/04/27 04:11:36;;;;;;;17.90;13.00;;;;;;;3.63;68.48;100622.56;104267;1105;78214;-65
2021/04/27 04:13:41;;;;;;;19.60;13.50;;;;;;;3.12;68.26;100620.95;104217;1104;78708;-64
2021/04/27 04:15:46;;;;;;;20.80;13.50;;;;;;;2.88;68.15;100623.94;104215;1099;79459;-63
2021/04/27 04:17:52;;;;;;;16.30;12.60;;;;;;;2.52;67.57;100635.17;104270;1104;77412;-62
2021/04/27 04:20:00;;;;;;;21.70;13.60;;;;;;;2.52;68.07;100635.17;104220;1104;76871;-61
2021/04/27 04:22:07;;;;;;;17.40;11.90;;;;;;;2.70;67.69;100638.90;104238;1105;78320;-65
2021/04/27 04:24:12;;;;;;;18.30;12.70;;;;;;;2.67;68.05;100639.16;104231;1104;77319;-65
2021/04/27 04:26:18;;;;;;;18.40;13.20;;;;;;;2.81;67.63;100641.48;104287;1104;77491;-61
2021/04/27 04:28:23;;;;;;;18.00;12.50;;;;;;;2.97;67.56;100636.48;104241;1104;76735;-63
2021/04/27 04:30:32;;;;;;;17.20;12.80;;;;;;;4.06;67.91;100631.88;104238;1098;77852;-63
2021/04/27 04:32:37;;;;;;;16.70;12.10;;;;;;;5.56;67.16;100632.55;104225;1104;78643;-65
2021/04/27 04:34:43;;;;;;;16.80;11.90;;;;;;;6.75;65.29;100633.75;104221;1105;78712;-64
2021/04/27 04:36:52;;;;;;;20.10;12.10;;;;;;;7.75;63.84;100627.58;104252;1105;78758;-64
2021/04/27 04:38:57;;;;;;;16.60;12.00;;;;;;;8.61;62.34;100635.00;104219;1104;77353;-62
2021/04/27 04:41:03;;;;;;;14.50;10.80;;;;;;;9.19;61.04;100634.66;104224;1100;78068;-63
2021/04/27 04:43:08;;;;;;;15.60;10.60;;;;;;;9.77;59.51;100630.66;104183;1104;78715;-64
2021/04/27 04:45:16;;;;;;;15.90;11.50;;;;;;;10.33;58.67;100638.34;104209;1104;77741;-64
2021/04/27 04:47:21;;;;;;;14.90;10.70;;;;;;;10.93;57.70;100632.85;104289;1105;78445;-65
2021/04/27 04:49:27;;;;;;;17.00;11.70;;;;;;;11.45;56.34;100623.80;104196;1104;78659;-66
2021/04/27 04:51:32;;;;;;;18.10;11.00;;;;;;;11.88;54.78;100624.72;104275;1099;78806;-65
2021/04/27 04:53:37;;;;;;;14.60;11.00;;;;;;;12.30;53.45;100624.73;104262;1104;78065;-65
2021/04/27 04:55:46;;;;;;;13.80;10.10;;;;;;;12.67;51.92;100621.69;104314;1104;78502;-61
2021/04/27 04:57:53;;;;;;;15.10;11.20;;;;;;;12.98;50.96;100618.56;104218;1104;77999;-62
2021/04/27 04:59:59;;;;;;;18.50;10.60;;;;;;;13.28;49.96;100614.59;104226;1099;78692;-60
2021/04/27 05:02:04;;;;;;;16.00;12.60;;;;;;;13.81;48.87;100618.34;104245;1104;78873;-65
2021/04/27 05:04:13;;;;;;;21.30;13.20;;;;;;;14.29;47.63;100610.88;104297;1105;78880;-62
2021/04/27 05:06:20;;;;;;;18.80;12.00;;;;;;;14.28;47.46;100608.39;104258;1099;78235;-60
2021/04/27 05:08:32;;;;;;;15.30;11.00;;;;;;;14.53;45.76;100612.19;104268;1104;78403;-61
2021/04/27 05:10:41;;;;;;;14.80;12.00;;;;;;;15.50;45.12;100607.58;104223;1104;78150;-61
2021/04/27 05:12:46;;;;;;;15.40;13.10;;;;;;;16.19;44.42;100609.48;104232;1104;78542;-60
2021/04/27 05:14:51;;;;;;;17.70;13.70;;;;;;;16.25;43.62;100612.17;104194;1104;78725;-63
2021/04/27 05:17:01;;;;;;;16.00;12.20;;;;;;;16.54;41.99;100605.25;104235;1104;78355;-61
2021/04/27 05:19:06;;;;;;;12.20;10.30;;;;;;;16.90;41.54;100612.67;104263;1098;77302;-62
2021/04/27 05:21:11;;;;;;;14.00;9.30;;;;;;;16.97;39.89;100608.84;104294;1099;77130;-62
2021/04/27 05:23:17;;;;;;;11.50;8.40;;;;;;;16.98;39.20;100609.66;104243;1104;79147;-60
2021/04/27 05:25:22;;;;;;;14.40;9.10;;;;;;;17.35;39.86;100610.52;104281;1104;78050;-62
2021/04/27 05:27:27;;;;;;;11.00;8.40;;;;;;;17.81;38.54;100607.21;104242;1104;78157;-61
2021/04/27 05:29:33;;;;;;;10.40;8.00;;;;;;;17.99;37.91;100607.98;104196;1098;76970;-62
2021/04/27 05:31:38;;;;;;;15.60;8.60;;;;;;;18.32;37.31;100612.98;104213;1104;77180;-64
2021/04/27 05:33:43;;;;;;;10.70;8.60;;;;;;;18.25;37.22;100618.55;104231;1099;78107;-63
2021/04/27 05:35:48;;;;;;;12.70;9.00;;;;;;;18.57;36.46;100618.30;104202;1104;78312;-62
2021/04/27 05:37:53;;;;;;;13.60;8.40;;;;;;;18.67;36.72;100618.53;104244;1104;79790;-60
2021/04/27 05:39:58;;;;;;;10.30;8.20;;;;;;;18.90;35.82;100625.93;104221;1104;78933;-60
2021/04/27 05:42:04;;;;;;;13.80;8.30;;;;;;;18.92;35.85;100624.62;104285;1104;78232;-64
2021/04/27 05:44:10;;;;;;;13.60;8.80;;;;;;;19.54;35.13;100627.64;104231;1105;77959;-64
2021/04/27 05:46:15;;;;;;;12.10;7.00;;;;;;;19.55;33.69;100623.84;104243;1099;78431;-64
2021/04/27 05:48:20;;;;;;;12.50;8.00;;;;;;;20.08;33.68;100612.56;104217;1104;78574;-65
2021/04/27 05:50:26;;;;;;;11.60;6.80;;;;;;;20.45;33.42;100619.28;104165;1104;79164;-65
2021/04/27 05:52:34;;;;;;;10.20;6.30;;;;;;;20.77;30.93;100619.52;104221;1104;79469;-64
2021/04/27 05:54:39;;;;;;;9.40;6.80;;;;;;;20.93;30.75;100621.45;104236;1100;77279;-65
2021/04/27 05:56:44;;;;;;;11.40;6.40;;;;;;;21.38;30.93;100619.36;104197;1098;78054;-64
2021/04/27 05:58:50;;;;;;;8.30;6.10;;;;;;;21.31;29.57;100617.89;104387;1087;77704;-61
2021/04/27 06:00:55;;;;;;;8.40;5.50;;;;;;;22.16;28.63;100610.69;104243;1104;77887;-61
2021/04/27 06:03:04;;;;;;;6.60;5.00;;;;;;;22.71;28.09;100615.89;104230;1104;77969;-62
2021/04/27 06:05:13;;;;;;;8.10;5.80;;;;;;;22.75;28.19;100617.02;104285;1104;77488;-62
2021/04/27 06:07:18;;;;;;;7.80;5.50;;;;;;;22.17;27.03;100615.09;104285;1099;77298;-62
2021/04/27 06:09:23;;;;;;;7.30;5.40;;;;;;;22.78;26.89;100622.00;104241;1104;79732;-62
2021/04/27 06:11:28;;;;;;;6.50;4.70;;;;;;;22.78;26.83;100619.23;104246;1104;79084;-61
2021/04/27 06:13:34;;;;;;;4.40;3.40;;;;;;;23.07;25.49;100618.90;104219;1099;78868;-66
2021/04/27 06:15:39;;;;;;;6.30;3.60;;;;;;;22.29;26.14;100620.44;104230;1104;78043;-67
2021/04/27 06:17:45;;;;;;;3.40;2.60;;;;;;;21.76;25.82;100618.45;104235;1104;78800;-64
2021/04/27 06:19:50;;;;;;;3.70;2.50;;;;;;;20.55;26.36;100619.44;104274;1104;77264;-61
2021/04/27 06:21:55;;;;;;;4.00;1.80;;;;;;;20.34;26.54;100622.93;104204;1104;79439;-61
2021/04/27 06:24:03;;;;;;;2.80;2.00;;;;;;;19.95;26.35;100624.64;104278;1098;76725;-64
2021/04/27 06:26:08;;;;;;;4.40;2.20;;;;;;;19.35;26.38;100636.00;104275;1104;77846;-66
2021/04/27 06:28:14;;;;;;;2.40;1.70;;;;;;;18.24;26.27;100635.17;104260;1098;78199;-61
2021/04/27 06:30:23;;;;;;;2.00;1.50;;;;;;;17.55;25.51;100633.81;104232;1104;78018;-61
2021/04/27 06:32:31;;;;;;;2.70;2.00;;;;;;;16.47;27.41;100632.56;104259;1104;76703;-60
2021/04/27 06:34:36;;;;;;;3.80;2.40;;;;;;;16.92;27.69;100633.22;104237;1104;79635;-61
2021/04/27 06:36:41;;;;;;;4.40;2.00;;;;;;;17.11;27.56;100634.91;104229;1104;79509;-63
2021/04/27 06:38:46;;;;;;;4.20;1.90;;;;;;;16.86;27.63;100634.14;104217;1104;78611;-65
2021/04/27 06:40:53;;;;;;;2.40;1.70;;;;;;;17.34;26.97;100634.25;104273;1098;78061;-65
2021/04/27 06:43:00;;;;;;;3.00;1.70;;;;;;;17.60;26.64;100641.34;104299;1104;77357;-63
2021/04/27 06:45:11;;;;;;;2.30;1.50;;;;;;;18.06;26.49;100635.25;104420;1088;79762;-65
2021/04/27 06:47:19;;;;;;;2.80;1.60;;;;;;;18.05;26.42;100625.36;104231;1099;78518;-65
2021/04/27 06:49:27;;;;;;;4.00;1.40;;;;;;;18.79;26.24;100630.30;104396;1088;78100;-65
2021/04/27 06:51:38;;;;;;;2.80;1.60;;;;;;;19.29;25.20;100630.64;104661;1087;79524;-66
2021/04/27 06:53:44;;;;;;;3.40;1.60;;;;;;;20.21;25.56;100624.05;104227;1104;78684;-65
2021/04/27 06:56:04;;;;;;;2.70;1.50;;;;;;;20.30;25.53;100624.52;104272;1099;76763;-66
2021/04/27 06:58:12;;;;;;;2.80;1.60;;;;;;;20.75;24.62;100625.27;104282;1104;78700;-62
2021/04/27 07:00:20;;;;;;;2.30;1.60;;;;;;;21.22;23.70;100625.73;104279;1104;78622;-65
2021/04/27 07:02:28;;;;;;;2.10;1.50;;;;;;;21.86;23.58;100617.76;104251;1098;76993;-67
2021/04/27 07:04:40;;;;;;;2.70;1.70;;;;;;;22.83;23.20;100621.19;104212;1104;77246;-64
2021/04/27 07:06:45;;;;;;;2.80;2.00;;;;;;;22.31;22.47;100629.26;104251;1098;77554;-64
2021/04/27 07:08:50;;;;;;;2.70;1.80;;;;;;;22.33;22.79;100624.34;104262;1104;78319;-65
2021/04/27 07:10:57;;;;;;;3.20;1.60;;;;;;;22.56;22.79;100625.91;104233;1104;78656;-64
2021/04/27 07:13:04;;;;;;;3.30;2.50;;;;;;;22.84;22.25;100631.13;104284;1104;78632;-66
2021/04/27 07:15:15;;;;;;;4.30;2.40;;;;;;;22.48;22.13;100620.88;104227;1104;77591;-63
2021/04/27 07:17:23;;;;;;;3.50;2.50;;;;;;;22.05;23.12;100617.19;104266;1104;77784;-61
2021/04/27 07:19:29;;;;;;;4.30;2.40;;;;;;;22.67;22.17;100628.52;104246;1104;79353;-62
2021/04/27 07:21:34;;;;;;;4.40;2.40;;;;;;;22.97;22.21;100622.41;104219;1098;78243;-62
2021/04/27 07:23:40;;;;;;;3.00;2.20;;;;;;;23.39;22.00;100622.41;104219;1104;79298;-61
2021/04/27 07:25:45;;;;;;;2.70;2.00;;;;;;;23.90;20.63;100627.03;104260;1104;78123;-62
2021/04/27 07:27:51;;;;;;;3.00;2.30;;;;;;;23.74;20.14;100628.08;104236;1099;78852;-61
2021/04/27 07:29:57;;;;;;;2.80;2.00;;;;;;;22.19;20.44;100625.85;104221;1104;78372;-62
2021/04/27 07:32:03;;;;;;;2.80;2.00;;;;;;;22.80;20.49;100625.31;104239;1104;78335;-62
2021/04/27 07:34:09;;;;;;;2.80;2.10;;;;;;;22.54;21.69;100631.69;104243;1104;78597;-60
2021/04/27 07:36:14;;;;;;;2.70;2.10;;;;;;;23.01;21.01;100631.81;104267;1099;78499;-64
2021/04/27 07:38:20;;;;;;;2.20;1.50;;;;;;;23.61;20.92;100633.27;104262;1104;78909;-66
2021/04/27 07:40:29;;;;;;;2.70;1.90;;;;;;;23.69;20.02;100632.75;104417;1089;78272;-66
2021/04/27 07:42:34;;;;;;;2.50;1.90;;;;;;;23.69;20.06;100629.98;104211;1104;78552;-66
2021/04/27 07:44:40;;;;;;;2.80;1.90;;;;;;;21.53;20.40;100633.32;104237;1104;78058;-62
2021/04/27 07:46:46;;;;;;;1.80;1.30;;;;;;;20.92;20.46;100628.84;104257;1104;79185;-61
2021/04/27 07:48:52;;;;;;;2.30;1.50;;;;;;;20.09;20.59;100631.50;104269;1104;77592;-59
2021/04/27 07:50:58;;;;;;;2.10;1.80;;;;;;;18.94;22.03;100630.68;104256;1104;79159;-60
2021/04/27 07:53:05;;;;;;;3.60;2.10;;;;;;;17.94;22.46;100637.09;104235;1104;78125;-60
2021/04/27 07:55:11;;;;;;;3.40;2.20;;;;;;;17.04;23.87;100639.63;104271;1098;77555;-59
2021/04/27 07:57:16;;;;;;;3.60;2.10;;;;;;;18.39;24.59;100642.95;104215;1105;77763;-61
2021/04/27 07:59:22;;;;;;;5.60;2.00;;;;;;;20.06;23.85;100631.98;104189;1104;78072;-60
2021/04/27 08:01:27;;;;;;;2.90;1.80;;;;;;;20.09;22.95;100636.98;104214;1098;79839;-60
2021/04/27 08:03:35;;;;;;;2.50;1.60;;;;;;;20.16;22.54;100625.88;104237;1104;79036;-59
2021/04/27 08:05:41;;;;;;;1.90;1.30;;;;;;;19.88;22.59;100634.94;104248;1104;78749;-60
2021/04/27 08:07:48;;;;;;;2.80;1.60;;;;;;;20.23;22.06;100632.86;104285;1104;79104;-60
2021/04/27 08:09:53;;;;;;;2.10;1.20;;;;;;;20.63;22.20;100635.50;104209;1104;77949;-61
2021/04/27 08:11:58;;;;;;;1.80;1.20;;;;;;;21.03;21.79;100638.06;104229;1104;78919;-61
2021/04/27 08:14:04;;;;;;;1.30;1.10;;;;;;;22.26;21.51;100623.70;104235;1104;77233;-61
2021/04/27 08:16:12;;;;;;;1.70;1.20;;;;;;;22.97;20.13;100625.16;104249;1104;78202;-61
2021/04/27 08:18:17;;;;;;;2.00;1.20;;;;;;;23.90;20.26;100629.78;104268;1104;79059;-61
2021/04/27 08:20:23;;;;;;;1.90;1.00;;;;;;;23.91;19.25;100623.18;104261;1104;78590;-61
2021/04/27 08:22:28;;;;;;;1.20;1.00;;;;;;;22.52;19.12;100628.38;104212;1104;78863;-61
2021/04/27 08:24:34;;;;;;;1.40;1.00;;;;;;;21.74;20.51;100629.73;104220;1104;77258;-59
2021/04/27 08:26:40;;;;;;;5.30;2.10;;;;;;;21.88;20.52;100621.10;104234;1099;77884;-61
2021/04/27 08:28:45;;;;;;;2.00;1.70;;;;;;;20.75;20.53;100625.27;104229;1104;78633;-59
2021/04/27 08:30:50;;;;;;;3.10;2.00;;;;;;;19.24;21.71;100633.27;104191;1104;79503;-61
2021/04/27 08:32:57;;;;;;;2.70;1.60;;;;;;;17.65;22.50;100622.36;104245;1104;78941;-61
2021/04/27 08:35:04;;;;;;;3.00;2.00;;;;;;;16.74;22.96;100629.63;104248;1104;79308;-60
2021/04/27 08:37:09;;;;;;;5.10;1.90;;;;;;;15.80;24.22;100638.66;104221;1097;78870;-61
2021/04/27 08:39:15;;;;;;;3.50;1.70;;;;;;;14.73;25.31;100646.47;104273;1098;78818;-62
2021/04/27 08:41:27;;;;;;;2.30;1.70;;;;;;;14.69;26.26;100650.67;104205;1104;78181;-61
2021/04/27 08:43:36;;;;;;;2.60;1.20;;;;;;;16.63;26.10;100633.92;104265;1104;78416;-63
2021/04/27 08:45:49;;;;;;;2.00;1.60;;;;;;;18.72;25.31;100633.17;104287;1104;78176;-64
2021/04/27 08:47:55;;;;;;;1.90;1.50;;;;;;;20.07;23.95;100628.18;104252;1104;77528;-64
2021/04/27 08:50:03;;;;;;;2.20;1.30;;;;;;;21.05;22.69;100630.40;104230;1100;76530;-64
2021/04/27 08:52:09;;;;;;;2.20;1.50;;;;;;;21.10;22.33;100623.09;104268;1104;77445;-61
2021/04/27 08:54:15;;;;;;;1.70;1.40;;;;;;;21.90;22.38;100629.92;104276;1104;78657;-61
2021/04/27 08:56:21;;;;;;;2.60;1.60;;;;;;;22.71;21.94;100626.08;104248;1104;79055;-63
2021/04/27 08:58:26;;;;;;;2.10;1.60;;;;;;;21.12;21.24;100631.10;104253;1104;78253;-61
2021/04/27 09:00:32;;;;;;;3.70;1.60;;;;;;;19.38;21.69;100638.30;104248;1104;78786;-60
2021/04/27 09:02:54;;;;;;;2.40;1.40;;;;;;;18.03;22.17;100638.44;104256;1104;78357;-60
2021/04/27 09:05:00;;;;;;;2.80;1.50;;;;;;;17.55;23.71;100639.27;104261;1100;77357;-60
2021/04/27 09:07:07;;;;;;;2.00;1.40;;;;;;;17.25;23.52;100634.80;104243;1104;78727;-62
2021/04/27 09:09:34;;;;;;;1.70;1.10;;;;;;;16.57;23.61;100631.23;104271;1104;77365;-60
2021/04/27 09:11:47;;;;;;;2.20;1.00;;;;;;;16.48;24.77;100642.39;104287;1098;78579;-64
2021/04/27 09:14:16;;;;;;;2.60;1.60;;;;;;;16.23;24.89;100637.99;104252;1104;79645;-63
2021/04/27 09:16:29;;;;;;;2.60;1.20;;;;;;;16.09;25.10;100634.52;104251;1104;77356;-65
2021/04/27 09:18:36;;;;;;;1.80;1.10;;;;;;;16.34;24.67;100631.83;104300;1098;79460;-67
2021/04/27 09:20:53;;;;;;;1.60;0.90;;;;;;;16.80;24.31;100628.73;104273;1100;78723;-63
2021/04/27 09:23:10;;;;;;;1.80;0.90;;;;;;;18.00;23.52;100617.88;104303;1104;78041;-61
2021/04/27 09:25:21;;;;;;;1.90;1.20;;;;;;;17.51;23.83;100621.66;104290;1098;77640;-65
2021/04/27 09:27:35;;;;;;;1.50;1.10;;;;;;;17.11;23.67;100621.27;104249;1104;77697;-65
2021/04/27 09:29:44;;;;;;;2.00;0.80;;;;;;;16.60;24.06;100623.45;104262;1099;78199;-64
2021/04/27 09:31:58;;;;;;;2.20;0.90;;;;;;;16.06;24.39;100615.03;104613;1087;78117;-62
2021/04/27 09:34:23;;;;;;;;;;;;;;;15.93;24.98;100610.52;104220;1104;79035;-59
2021/04/27 09:36:31;;;;;;;;;;;;;;;15.54;25.08;100621.61;104271;1104;78569;-63
2021/04/27 09:38:36;;;;;;;1.40;0.90;;;;;;;15.38;25.25;100617.45;104191;1104;77358;-61